Time;durP1;ratioP1;P1;durP2;ratioP2;P2;SDS_P1;SDS_P2;PMS_P1;PMS_P2;Temp;Humidity;BMP_temperature;BMP_pressure;BME280_temperature;BME280_humidity;BME280_pressure;Samples;Min_cycle;Max_cycle;Signal;HPM_P1;HPM_P2
2022/08/02 00:01:22;;;;;;;;;5.00;5.00;;;;;;;;5052408;28;45319;-64
2022/08/02 00:03:47;;;;;;;;;7.00;5.25;;;;;;;;5052411;28;45359;-64
2022/08/02 00:06:13;;;;;;;;;4.00;4.00;;;;;;;;5052363;28;45205;-64
2022/08/02 00:08:38;;;;;;;;;5.00;4.00;;;;;;;;5052153;28;46596;-64
2022/08/02 00:11:03;;;;;;;;;3.50;3.50;;;;;;;;5052248;28;45315;-64
2022/08/02 00:13:28;;;;;;;;;5.00;4.00;;;;;;;;5052334;28;45307;-64
2022/08/02 00:15:53;;;;;;;;;5.00;5.00;;;;;;;;5034174;28;45296;-64
2022/08/02 00:18:19;;;;;;;;;4.00;4.00;;;;;;;;5065655;28;45758;-64
2022/08/02 00:20:44;;;;;;;;;5.00;5.00;;;;;;;;5054066;28;45582;-64
2022/08/02 00:23:09;;;;;;;;;4.75;4.25;;;;;;;;5072272;28;45442;-64
2022/08/02 00:25:34;;;;;;;;;4.00;4.00;;;;;;;;5054267;27;45312;-64
2022/08/02 00:28:00;;;;;;;;;4.75;3.75;;;;;;;;5053863;28;46391;-63
2022/08/02 00:30:25;;;;;;;;;4.25;4.25;;;;;;;;5072227;28;45295;-63
2022/08/02 00:32:50;;;;;;;;;5.75;5.75;;;;;;;;5072176;28;45334;-64
2022/08/02 00:35:15;;;;;;;;;4.75;3.75;;;;;;;;5072296;28;45487;-64
2022/08/02 00:37:40;;;;;;;;;4.00;4.00;;;;;;;;5071971;28;45683;-64
2022/08/02 00:40:07;;;;;;;;;4.00;4.00;;;;;;;;5074776;28;45340;-64
2022/08/02 00:42:32;;;;;;;;;5.00;3.75;;;;;;;;5075106;28;45420;-63
2022/08/02 00:44:57;;;;;;;;;2.25;2.25;;;;;;;;5074970;28;45401;-64
2022/08/02 00:47:22;;;;;;;;;4.75;4.75;;;;;;;;5057551;27;46693;-63
2022/08/02 00:49:48;;;;;;;;;2.00;2.00;;;;;;;;5075223;28;45388;-63
2022/08/02 00:52:13;;;;;;;;;3.00;3.00;;;;;;;;5075366;28;45284;-64
2022/08/02 00:54:38;;;;;;;;;5.25;4.00;;;;;;;;5075244;28;45324;-65
2022/08/02 00:57:03;;;;;;;;;4.25;4.25;;;;;;;;5075027;28;45902;-63
2022/08/02 00:59:28;;;;;;;;;3.50;3.50;;;;;;;;5056856;28;45363;-64
2022/08/02 01:01:54;;;;;;;;;5.25;5.00;;;;;;;;5075084;28;45408;-63
2022/08/02 01:04:19;;;;;;;;;5.00;4.00;;;;;;;;5074788;28;45306;-64
2022/08/02 01:06:44;;;;;;;;;3.25;3.00;;;;;;;;5074953;28;46572;-63
2022/08/02 01:09:10;;;;;;;;;4.50;4.50;;;;;;;;5074803;28;45314;-63
2022/08/02 01:11:35;;;;;;;;;3.00;3.00;;;;;;;;5075053;28;45404;-64
2022/08/02 01:14:04;;;;;;;;;4.00;4.00;;;;;;;;5074913;28;45389;-64
2022/08/02 01:16:31;;;;;;;;;3.75;3.75;;;;;;;;5074759;28;45865;-63
2022/08/02 01:19:00;;;;;;;;;6.00;3.75;;;;;;;;5056303;28;45497;-64
2022/08/02 01:21:36;;;;;;;;;4.25;4.25;;;;;;;;5074794;28;45185;-63
2022/08/02 01:24:17;;;;;;;;;5.50;4.25;;;;;;;;5074636;28;45400;-64
2022/08/02 01:26:48;;;;;;;;;4.50;4.50;;;;;;;;5074240;28;45338;-64
2022/08/02 01:29:18;;;;;;;;;4.00;4.00;;;;;;;;5074569;28;45397;-64
2022/08/02 01:31:53;;;;;;;;;5.25;5.25;;;;;;;;5074738;28;45357;-64
2022/08/02 01:34:38;;;;;;;;;4.75;4.00;;;;;;;;5074346;28;45313;-63
2022/08/02 01:37:13;;;;;;;;;3.75;2.25;;;;;;;;5073976;28;46352;-64
2022/08/02 01:39:39;;;;;;;;;4.00;4.00;;;;;;;;5074278;28;45142;-64
2022/08/02 01:42:05;;;;;;;;;5.00;4.00;;;;;;;;5074325;28;45362;-64
2022/08/02 01:44:33;;;;;;;;;3.75;3.75;;;;;;;;5074351;28;45325;-63
2022/08/02 01:47:01;;;;;;;;;1.75;1.75;;;;;;;;5074339;28;46695;-64
2022/08/02 01:49:28;;;;;;;;;4.25;4.25;;;;;;;;5073660;28;45320;-65
2022/08/02 01:54:39;;;;;;;;;9.00;4.75;;;;;;;;5074391;28;45240;-65
2022/08/02 01:57:08;;;;;;;;;6.00;3.25;;;;;;;;5074125;28;45759;-65
2022/08/02 01:59:34;;;;;;;;;5.00;5.00;;;;;;;;5074224;28;45458;-64
2022/08/02 02:02:00;;;;;;;;;4.00;4.00;;;;;;;;5074210;28;45353;-64
2022/08/02 02:04:27;;;;;;;;;4.00;4.00;;;;;;;;5073991;28;45461;-64
2022/08/02 02:06:53;;;;;;;;;3.00;3.00;;;;;;;;5073930;28;48490;-64
2022/08/02 02:09:19;;;;;;;;;4.00;4.00;;;;;;;;5074034;28;45370;-63
2022/08/02 02:11:45;;;;;;;;;5.00;5.00;;;;;;;;5074346;28;45341;-63
2022/08/02 02:14:11;;;;;;;;;3.00;3.00;;;;;;;;5074083;28;45375;-63
2022/08/02 02:16:37;;;;;;;;;4.50;4.50;;;;;;;;5073959;28;46341;-63
2022/08/02 02:19:02;;;;;;;;;5.75;5.75;;;;;;;;5055840;28;45241;-63
2022/08/02 02:21:28;;;;;;;;;5.00;5.00;;;;;;;;5074286;27;45307;-64
2022/08/02 02:23:53;;;;;;;;;3.50;3.50;;;;;;;;5056085;28;45372;-63
2022/08/02 02:26:18;;;;;;;;;4.00;3.00;;;;;;;;5055605;27;47413;-64
2022/08/02 02:28:45;;;;;;;;;4.50;4.50;;;;;;;;5073879;28;45279;-64
2022/08/02 02:31:12;;;;;;;;;3.50;3.50;;;;;;;;5073970;28;45360;-63
2022/08/02 02:33:40;;;;;;;;;5.75;5.75;;;;;;;;5073899;28;45369;-64
2022/08/02 02:36:06;;;;;;;;;2.50;2.50;;;;;;;;5038707;28;47923;-63
2022/08/02 02:38:32;;;;;;;;;4.50;4.50;;;;;;;;5073653;28;45360;-63
2022/08/02 02:41:00;;;;;;;;;4.00;4.00;;;;;;;;5073765;28;45410;-64
2022/08/02 02:43:32;;;;;;;;;3.00;3.00;;;;;;;;5055430;27;45398;-62
2022/08/02 02:45:58;;;;;;;;;4.25;4.25;;;;;;;;5073572;28;46572;-64
2022/08/02 02:48:25;;;;;;;;;7.25;7.25;;;;;;;;5073786;28;45319;-64
2022/08/02 02:50:51;;;;;;;;;5.50;5.50;;;;;;;;5073665;28;45401;-64
2022/08/02 02:53:17;;;;;;;;;5.75;4.50;;;;;;;;5073680;28;45384;-64
2022/08/02 02:55:42;;;;;;;;;6.00;4.50;;;;;;;;5073348;28;46470;-64
2022/08/02 02:58:08;;;;;;;;;5.00;5.00;;;;;;;;5073562;28;45342;-64
2022/08/02 03:03:17;;;;;;;;;5.00;5.00;;;;;;;;5073253;28;45336;-62
2022/08/02 03:05:42;;;;;;;;;4.50;4.25;;;;;;;;5073435;28;46036;-63
2022/08/02 03:08:07;;;;;;;;;5.75;5.00;;;;;;;;5073475;28;45341;-64
2022/08/02 03:10:33;;;;;;;;;5.00;5.00;;;;;;;;5073765;28;45282;-63
2022/08/02 03:12:58;;;;;;;;;4.75;4.50;;;;;;;;5055392;27;45453;-64
2022/08/02 03:15:26;;;;;;;;;3.00;3.00;;;;;;;;5073061;28;46518;-64
2022/08/02 03:17:51;;;;;;;;;4.00;4.00;;;;;;;;5073240;28;45379;-65
2022/08/02 03:20:17;;;;;;;;;3.00;3.00;;;;;;;;5073347;28;45370;-62
2022/08/02 03:22:43;;;;;;;;;5.25;4.00;;;;;;;;5055117;28;45464;-64
2022/08/02 03:25:09;;;;;;;;;8.75;5.25;;;;;;;;5054629;27;47075;-64
2022/08/02 03:27:34;;;;;;;;;4.75;4.75;;;;;;;;5072744;28;45335;-64
2022/08/02 03:29:59;;;;;;;;;4.00;4.00;;;;;;;;5073190;28;45337;-64
2022/08/02 03:32:25;;;;;;;;;5.00;5.00;;;;;;;;5073272;28;45354;-64
2022/08/02 03:34:50;;;;;;;;;4.25;4.25;;;;;;;;5072916;28;46497;-64
2022/08/02 03:37:16;;;;;;;;;4.25;4.25;;;;;;;;5054797;28;45339;-64
2022/08/02 03:39:41;;;;;;;;;3.00;3.00;;;;;;;;5073129;28;45282;-64
2022/08/02 03:42:07;;;;;;;;;6.00;6.00;;;;;;;;5072982;28;45410;-64
2022/08/02 03:44:33;;;;;;;;;6.75;4.00;;;;;;;;5054612;28;47843;-64
2022/08/02 03:46:58;;;;;;;;;4.25;4.25;;;;;;;;5072692;28;45312;-64
2022/08/02 03:49:23;;;;;;;;;6.00;5.50;;;;;;;;5054874;28;45312;-64
2022/08/02 03:51:49;;;;;;;;;4.00;4.00;;;;;;;;5054736;27;45542;-63
2022/08/02 03:54:16;;;;;;;;;3.25;3.25;;;;;;;;5072611;28;46403;-63
2022/08/02 03:56:41;;;;;;;;;4.00;4.00;;;;;;;;5072760;28;45370;-63
2022/08/02 03:59:10;;;;;;;;;4.50;4.50;;;;;;;;5072842;28;45234;-63
2022/08/02 04:01:36;;;;;;;;;3.75;2.75;;;;;;;;5072683;28;45281;-62
2022/08/02 04:04:01;;;;;;;;;5.00;5.00;;;;;;;;5072206;28;46136;-64
2022/08/02 04:06:26;;;;;;;;;2.50;2.50;;;;;;;;5054479;28;46148;-63
2022/08/02 04:08:52;;;;;;;;;4.25;4.25;;;;;;;;5072589;28;45326;-63
2022/08/02 04:11:29;;;;;;;;;3.00;3.00;;;;;;;;5072811;27;45378;-63
2022/08/02 04:13:54;;;;;;;;;4.75;4.75;;;;;;;;5073804;28;46569;-63
2022/08/02 04:16:21;;;;;;;;;4.00;4.00;;;;;;;;5075453;28;45240;-63
2022/08/02 04:18:52;;;;;;;;;5.25;4.00;;;;;;;;5075655;27;45325;-63
2022/08/02 04:21:19;;;;;;;;;5.00;5.00;;;;;;;;5075741;28;45959;-63
2022/08/02 04:23:46;;;;;;;;;3.50;3.50;;;;;;;;5075393;28;47855;-63
2022/08/02 04:26:12;;;;;;;;;5.00;5.00;;;;;;;;5075241;28;45306;-63
2022/08/02 04:28:38;;;;;;;;;3.75;3.50;;;;;;;;5057511;28;45421;-63
2022/08/02 04:31:04;;;;;;;;;6.00;4.00;;;;;;;;5075556;28;45288;-63
2022/08/02 04:33:29;;;;;;;;;4.00;4.00;;;;;;;;5075242;28;46292;-64
2022/08/02 04:35:57;;;;;;;;;2.50;2.50;;;;;;;;5075540;28;45353;-64
2022/08/02 04:38:22;;;;;;;;;2.00;2.00;;;;;;;;5075474;28;45291;-64
2022/08/02 04:40:52;;;;;;;;;3.00;3.00;;;;;;;;5075352;28;45364;-64
2022/08/02 04:43:17;;;;;;;;;3.50;3.50;;;;;;;;5074885;28;45862;-64
2022/08/02 04:45:43;;;;;;;;;5.50;5.25;;;;;;;;5075331;28;45493;-64
2022/08/02 04:48:09;;;;;;;;;3.50;3.50;;;;;;;;5075309;28;45408;-62
2022/08/02 04:50:34;;;;;;;;;3.75;3.25;;;;;;;;5075282;28;45279;-63
2022/08/02 04:52:59;;;;;;;;;4.25;4.25;;;;;;;;5075078;28;45609;-64
2022/08/02 04:55:27;;;;;;;;;3.25;3.25;;;;;;;;5075025;28;45373;-64
2022/08/02 04:57:56;;;;;;;;;8.75;7.25;;;;;;;;5075316;28;45210;-63
2022/08/02 05:00:21;;;;;;;;;3.75;3.75;;;;;;;;5075059;28;45476;-63
2022/08/02 05:02:47;;;;;;;;;4.50;4.50;;;;;;;;5074683;28;47497;-64
2022/08/02 05:05:12;;;;;;;;;5.00;4.00;;;;;;;;5074795;28;45345;-63
2022/08/02 05:07:37;;;;;;;;;6.75;4.25;;;;;;;;5075009;28;45390;-63
2022/08/02 05:10:03;;;;;;;;;6.50;5.00;;;;;;;;5075099;28;45543;-64
2022/08/02 05:12:28;;;;;;;;;4.50;3.00;;;;;;;;5056623;28;46433;-63
2022/08/02 05:14:53;;;;;;;;;5.00;5.00;;;;;;;;5074960;28;45949;-64
2022/08/02 05:17:19;;;;;;;;;1.00;1.00;;;;;;;;5074812;27;45307;-63
2022/08/02 05:19:44;;;;;;;;;4.00;3.75;;;;;;;;5074957;28;45345;-63
2022/08/02 05:22:09;;;;;;;;;3.25;3.25;;;;;;;;5075216;28;45501;-63
2022/08/02 05:24:34;;;;;;;;;6.00;4.50;;;;;;;;5074559;28;45300;-62
2022/08/02 05:26:59;;;;;;;;;2.75;2.75;;;;;;;;5074773;28;45350;-63
2022/08/02 05:29:24;;;;;;;;;5.75;3.75;;;;;;;;5074735;28;45313;-63
2022/08/02 05:31:50;;;;;;;;;2.50;2.50;;;;;;;;5074659;28;45283;-63
2022/08/02 05:34:15;;;;;;;;;4.25;3.50;;;;;;;;5074706;28;45434;-63
2022/08/02 05:36:40;;;;;;;;;5.25;5.25;;;;;;;;5074707;28;45997;-63
2022/08/02 05:39:06;;;;;;;;;4.00;4.00;;;;;;;;5074613;28;45357;-63
2022/08/02 05:41:32;;;;;;;;;3.25;2.75;;;;;;;;5074309;28;46763;-63
2022/08/02 05:43:57;;;;;;;;;2.75;2.75;;;;;;;;5074349;28;45415;-63
2022/08/02 05:46:23;;;;;;;;;3.00;3.00;;;;;;;;5056491;28;45531;-63
2022/08/02 05:48:48;;;;;;;;;4.25;2.75;;;;;;;;5074490;28;45393;-63
2022/08/02 05:51:22;;;;;;;;;2.75;2.75;;;;;;;;5074406;28;45497;-63
2022/08/02 05:53:47;;;;;;;;;4.00;3.25;;;;;;;;5056284;28;45348;-64
2022/08/02 05:56:12;;;;;;;;;3.25;3.25;;;;;;;;5074581;28;45403;-64
2022/08/02 05:58:56;;;;;;;;;2.00;2.00;;;;;;;;5074473;28;45533;-64
2022/08/02 06:01:32;;;;;;;;;5.00;5.00;;;;;;;;5074149;28;45854;-64
2022/08/02 06:03:58;;;;;;;;;5.00;5.00;;;;;;;;5056029;28;45552;-64
2022/08/02 06:06:24;;;;;;;;;4.00;4.00;;;;;;;;5074301;27;45280;-63
2022/08/02 06:08:53;;;;;;;;;3.25;3.25;;;;;;;;5056085;27;45285;-63
2022/08/02 06:11:21;;;;;;;;;3.00;3.00;;;;;;;;5074237;28;46728;-64
2022/08/02 06:13:47;;;;;;;;;3.50;3.50;;;;;;;;5073864;28;45425;-63
2022/08/02 06:16:12;;;;;;;;;3.00;3.00;;;;;;;;5074135;28;45307;-63
2022/08/02 06:18:40;;;;;;;;;3.75;3.75;;;;;;;;5055710;27;45286;-63
2022/08/02 06:21:07;;;;;;;;;3.75;3.75;;;;;;;;5073974;28;46276;-63
2022/08/02 06:23:33;;;;;;;;;3.00;3.00;;;;;;;;5055596;28;45360;-63
2022/08/02 06:25:59;;;;;;;;;3.25;3.25;;;;;;;;5055885;27;45406;-64
2022/08/02 06:28:25;;;;;;;;;4.25;3.00;;;;;;;;5074012;28;45361;-63
2022/08/02 06:30:51;;;;;;;;;4.00;4.00;;;;;;;;5073851;28;45839;-62
2022/08/02 06:33:16;;;;;;;;;4.00;4.00;;;;;;;;5073882;28;45301;-63
2022/08/02 06:35:48;;;;;;;;;2.00;2.00;;;;;;;;5073567;28;45443;-63
2022/08/02 06:38:16;;;;;;;;;3.00;3.00;;;;;;;;5073599;28;45511;-64
2022/08/02 06:40:44;;;;;;;;;3.25;3.00;;;;;;;;5073205;28;47045;-63
2022/08/02 06:43:11;;;;;;;;;3.00;3.00;;;;;;;;5073216;28;45361;-64
2022/08/02 06:45:37;;;;;;;;;3.00;3.00;;;;;;;;5055127;28;45599;-63
2022/08/02 06:48:03;;;;;;;;;4.00;4.00;;;;;;;;5073159;28;45401;-63
2022/08/02 06:50:29;;;;;;;;;4.00;4.00;;;;;;;;5073337;28;46513;-63
2022/08/02 06:52:54;;;;;;;;;4.75;4.75;;;;;;;;5073489;28;45324;-64
2022/08/02 06:55:19;;;;;;;;;3.75;3.75;;;;;;;;5055573;27;45415;-63
2022/08/02 06:57:45;;;;;;;;;3.00;3.00;;;;;;;;5073733;28;45372;-64
2022/08/02 07:00:11;;;;;;;;;3.00;3.00;;;;;;;;5073379;28;46121;-64
2022/08/02 07:02:36;;;;;;;;;2.00;2.00;;;;;;;;5055539;28;45402;-64
2022/08/02 07:05:02;;;;;;;;;5.00;3.00;;;;;;;;5073225;28;45348;-64
2022/08/02 07:07:27;;;;;;;;;3.50;3.50;;;;;;;;5073268;28;45425;-63
2022/08/02 07:09:53;;;;;;;;;5.25;3.00;;;;;;;;5073436;28;45462;-63
2022/08/02 07:12:18;;;;;;;;;2.50;2.50;;;;;;;;5073504;28;45506;-64
2022/08/02 07:14:43;;;;;;;;;3.00;3.00;;;;;;;;5073449;28;45338;-64
2022/08/02 07:17:08;;;;;;;;;3.00;3.00;;;;;;;;5054987;27;45342;-63
2022/08/02 07:19:33;;;;;;;;;3.75;3.00;;;;;;;;5073222;28;45353;-63
2022/08/02 07:21:59;;;;;;;;;3.00;2.00;;;;;;;;5073158;28;45356;-63
2022/08/02 07:24:24;;;;;;;;;3.00;3.00;;;;;;;;5055022;28;45410;-63
2022/08/02 07:26:49;;;;;;;;;4.00;3.00;;;;;;;;5073001;28;45342;-63
2022/08/02 07:29:14;;;;;;;;;5.50;3.00;;;;;;;;5072776;28;46355;-64
2022/08/02 07:31:40;;;;;;;;;3.25;3.00;;;;;;;;5072965;28;45352;-63
2022/08/02 07:34:05;;;;;;;;;3.00;3.00;;;;;;;;5073187;28;45319;-63
2022/08/02 07:36:30;;;;;;;;;3.00;3.00;;;;;;;;5073217;28;45272;-64
2022/08/02 07:38:56;;;;;;;;;3.00;3.00;;;;;;;;5053499;28;47594;-64
2022/08/02 07:41:21;;;;;;;;;2.00;2.00;;;;;;;;5070857;28;45459;-63
2022/08/02 07:43:47;;;;;;;;;4.00;4.00;;;;;;;;5070955;28;45374;-63
2022/08/02 07:46:12;;;;;;;;;4.00;3.00;;;;;;;;5052548;28;45494;-64
2022/08/02 07:48:37;;;;;;;;;4.00;3.00;;;;;;;;5071534;28;46389;-62
2022/08/02 07:51:02;;;;;;;;;3.00;3.00;;;;;;;;5073899;28;45365;-64
2022/08/02 07:53:28;;;;;;;;;4.50;3.00;;;;;;;;5073931;28;45372;-63
2022/08/02 07:55:53;;;;;;;;;2.25;2.25;;;;;;;;5073992;28;45648;-63
2022/08/02 07:58:18;;;;;;;;;2.25;2.25;;;;;;;;5073702;28;47445;-64
2022/08/02 08:00:44;;;;;;;;;3.50;3.50;;;;;;;;5073777;28;45485;-63
2022/08/02 08:03:09;;;;;;;;;3.00;3.00;;;;;;;;5074050;28;45432;-63
2022/08/02 08:05:35;;;;;;;;;2.00;2.00;;;;;;;;5073838;28;45356;-63
2022/08/02 08:08:00;;;;;;;;;3.75;3.75;;;;;;;;5055191;28;48572;-63
2022/08/02 08:10:25;;;;;;;;;3.00;3.00;;;;;;;;5073809;28;45498;-63
2022/08/02 08:12:50;;;;;;;;;2.00;2.00;;;;;;;;5055795;27;45426;-64
2022/08/02 08:15:15;;;;;;;;;3.00;3.00;;;;;;;;5055418;28;45394;-64
2022/08/02 08:17:41;;;;;;;;;4.25;2.75;;;;;;;;5073293;27;45495;-64
2022/08/02 08:20:06;;;;;;;;;2.75;2.75;;;;;;;;5073685;28;45547;-64
2022/08/02 08:22:31;;;;;;;;;2.00;2.00;;;;;;;;5055561;28;45405;-64
2022/08/02 08:24:56;;;;;;;;;2.75;2.75;;;;;;;;5073607;28;45397;-64
2022/08/02 08:27:22;;;;;;;;;3.00;2.25;;;;;;;;5073176;28;45933;-63
2022/08/02 08:29:47;;;;;;;;;4.00;3.00;;;;;;;;5073656;28;45556;-64
2022/08/02 08:32:13;;;;;;;;;5.25;2.50;;;;;;;;5073646;28;45471;-65
2022/08/02 08:34:38;;;;;;;;;2.50;2.50;;;;;;;;5055415;28;45444;-64
2022/08/02 08:37:03;;;;;;;;;2.25;2.25;;;;;;;;5055218;28;46500;-64
2022/08/02 08:39:29;;;;;;;;;2.00;2.00;;;;;;;;5073283;28;45400;-64
2022/08/02 08:41:54;;;;;;;;;3.00;1.75;;;;;;;;5073383;28;45810;-64
2022/08/02 08:44:19;;;;;;;;;3.00;1.50;;;;;;;;5073176;28;45413;-64
2022/08/02 08:46:46;;;;;;;;;5.50;3.25;;;;;;;;5073167;28;45446;-62
2022/08/02 08:49:19;;;;;;;;;2.75;1.00;;;;;;;;5055157;28;45446;-64
2022/08/02 08:51:44;;;;;;;;;2.25;2.25;;;;;;;;5073135;28;45443;-66
2022/08/02 08:54:11;;;;;;;;;1.50;1.50;;;;;;;;5073229;28;45670;-62
2022/08/02 08:56:36;;;;;;;;;3.75;2.75;;;;;;;;5073080;28;46813;-63
2022/08/02 08:59:02;;;;;;;;;2.25;2.25;;;;;;;;5072362;28;45346;-64
2022/08/02 09:01:28;;;;;;;;;2.50;2.50;;;;;;;;5055338;27;45606;-64
2022/08/02 09:03:53;;;;;;;;;6.75;4.00;;;;;;;;5072916;28;45465;-64
2022/08/02 09:06:19;;;;;;;;;3.75;3.25;;;;;;;;5072837;28;46204;-63
2022/08/02 09:08:44;;;;;;;;;2.00;2.00;;;;;;;;5072929;28;45411;-65
2022/08/02 09:11:14;;;;;;;;;2.75;2.25;;;;;;;;5073123;28;45358;-64
2022/08/02 09:13:47;;;;;;;;;4.00;3.00;;;;;;;;5072910;28;45455;-63
2022/08/02 09:16:12;;;;;;;;;3.75;2.75;;;;;;;;5054417;28;47688;-64
2022/08/02 09:18:38;;;;;;;;;2.50;2.25;;;;;;;;5070935;27;45316;-65
2022/08/02 09:21:07;;;;;;;;;2.00;2.00;;;;;;;;5054513;28;45352;-65
2022/08/02 09:23:42;;;;;;;;;4.25;3.00;;;;;;;;5073476;28;45557;-65
2022/08/02 09:26:09;;;;;;;;;3.00;3.00;;;;;;;;5073602;28;46496;-64
2022/08/02 09:28:36;;;;;;;;;2.25;2.25;;;;;;;;5073655;28;45396;-62
2022/08/02 09:31:03;;;;;;;;;3.25;3.25;;;;;;;;5073733;28;45329;-63
2022/08/02 09:33:28;;;;;;;;;4.00;3.00;;;;;;;;5073020;28;45358;-66
2022/08/02 09:36:04;;;;;;;;;3.00;2.25;;;;;;;;5073748;28;46337;-65
2022/08/02 09:38:31;;;;;;;;;3.00;3.00;;;;;;;;5074052;28;45329;-65
2022/08/02 09:40:57;;;;;;;;;2.50;2.50;;;;;;;;5055404;28;45449;-64
2022/08/02 09:43:33;;;;;;;;;4.50;3.50;;;;;;;;5073563;28;45407;-63
2022/08/02 09:45:59;;;;;;;;;2.25;2.25;;;;;;;;5073867;28;45379;-63
2022/08/02 09:48:24;;;;;;;;;2.00;2.00;;;;;;;;5073578;28;45393;-64
2022/08/02 09:50:55;;;;;;;;;3.00;3.00;;;;;;;;5074010;28;45342;-63
2022/08/02 09:53:22;;;;;;;;;2.00;2.00;;;;;;;;5074044;28;45596;-62
2022/08/02 09:55:54;;;;;;;;;2.00;2.00;;;;;;;;5074222;28;45863;-62
2022/08/02 09:58:20;;;;;;;;;1.50;1.50;;;;;;;;5074229;28;45157;-62
2022/08/02 10:00:57;;;;;;;;;2.00;2.00;;;;;;;;5074341;28;45368;-62
2022/08/02 10:03:23;;;;;;;;;3.00;3.00;;;;;;;;5074384;28;45393;-63
2022/08/02 10:05:53;;;;;;;;;2.25;1.25;;;;;;;;5073920;28;46558;-63
2022/08/02 10:08:19;;;;;;;;;2.50;2.50;;;;;;;;5074162;28;45306;-63
2022/08/02 10:10:44;;;;;;;;;2.25;2.00;;;;;;;;5073411;28;45234;-64
2022/08/02 10:13:10;;;;;;;;;2.50;2.50;;;;;;;;5055569;28;45561;-63
2022/08/02 10:15:38;;;;;;;;;2.00;2.00;;;;;;;;5073849;28;45289;-62
2022/08/02 10:18:04;;;;;;;;;2.75;2.75;;;;;;;;5055413;27;45243;-63
2022/08/02 10:20:31;;;;;;;;;3.50;2.25;;;;;;;;5074191;28;45337;-62
2022/08/02 10:22:57;;;;;;;;;3.00;2.50;;;;;;;;5073849;28;45355;-63
2022/08/02 10:25:23;;;;;;;;;1.50;1.50;;;;;;;;5073435;28;46126;-63
2022/08/02 10:27:49;;;;;;;;;3.25;2.25;;;;;;;;5073853;28;45369;-63
2022/08/02 10:30:14;;;;;;;;;3.00;2.00;;;;;;;;5073953;28;45512;-63
2022/08/02 10:32:41;;;;;;;;;1.75;1.75;;;;;;;;5055581;28;45351;-63
2022/08/02 10:35:09;;;;;;;;;2.50;2.50;;;;;;;;5073972;28;45845;-64
2022/08/02 10:37:38;;;;;;;;;2.00;1.75;;;;;;;;5073577;28;45299;-63
2022/08/02 10:40:04;;;;;;;;;1.75;1.75;;;;;;;;5055514;28;45356;-63
2022/08/02 10:42:58;;;;;;;;;2.00;2.00;;;;;;;;5055504;28;45441;-62
2022/08/02 10:45:23;;;;;;;;;2.00;2.00;;;;;;;;5073140;28;45868;-62
2022/08/02 10:47:58;;;;;;;;;1.50;1.50;;;;;;;;5073680;28;45362;-63
2022/08/02 10:50:42;;;;;;;;;1.75;1.75;;;;;;;;5055858;28;45340;-62
2022/08/02 10:53:22;;;;;;;;;1.00;1.00;;;;;;;;5073544;28;45435;-63
2022/08/02 10:55:48;;;;;;;;;2.50;2.00;;;;;;;;5055211;28;46663;-63
2022/08/02 10:58:21;;;;;;;;;2.00;2.00;;;;;;;;5073315;28;45292;-62
2022/08/02 11:00:47;;;;;;;;;3.00;2.00;;;;;;;;5073508;27;45215;-63
2022/08/02 11:03:27;;;;;;;;;1.25;1.25;;;;;;;;5055478;27;45482;-64
2022/08/02 11:06:06;;;;;;;;;3.25;3.25;;;;;;;;5073107;28;45469;-63
2022/08/02 11:08:31;;;;;;;;;2.25;2.25;;;;;;;;5073357;28;45413;-63
2022/08/02 11:11:09;;;;;;;;;1.25;1.25;;;;;;;;5073307;28;45390;-63
2022/08/02 11:13:54;;;;;;;;;1.75;1.75;;;;;;;;5073322;28;45408;-63
2022/08/02 11:16:19;;;;;;;;;1.25;1.25;;;;;;;;5072589;28;45751;-62
2022/08/02 11:18:48;;;;;;;;;2.50;2.50;;;;;;;;5072644;27;45341;-63
2022/08/02 11:21:29;;;;;;;;;3.00;3.00;;;;;;;;5073417;28;45364;-63
2022/08/02 11:23:55;;;;;;;;;2.00;2.00;;;;;;;;5072892;28;45324;-62
2022/08/02 11:26:29;;;;;;;;;1.00;1.00;;;;;;;;5072859;28;46542;-62
2022/08/02 11:28:55;;;;;;;;;1.00;1.00;;;;;;;;5073184;28;45404;-63
2022/08/02 11:31:20;;;;;;;;;2.00;2.00;;;;;;;;5054773;28;45316;-62
2022/08/02 11:33:47;;;;;;;;;4.00;3.00;;;;;;;;5073158;28;45421;-63
2022/08/02 11:36:13;;;;;;;;;2.00;2.00;;;;;;;;5072928;28;46160;-62
2022/08/02 11:38:38;;;;;;;;;2.00;1.50;;;;;;;;5073034;28;45383;-63
2022/08/02 11:41:04;;;;;;;;;2.25;2.25;;;;;;;;5072918;28;45315;-63
2022/08/02 11:43:32;;;;;;;;;2.00;2.00;;;;;;;;5072912;28;45199;-62
2022/08/02 11:46:01;;;;;;;;;4.00;3.00;;;;;;;;5072451;28;46977;-63
2022/08/02 11:48:34;;;;;;;;;1.50;1.25;;;;;;;;5072601;28;45319;-62
2022/08/02 11:51:10;;;;;;;;;2.00;2.00;;;;;;;;5054704;28;45448;-63
2022/08/02 11:53:42;;;;;;;;;2.00;2.00;;;;;;;;5072878;28;45374;-63
2022/08/02 11:56:09;;;;;;;;;2.00;2.00;;;;;;;;5072508;28;45669;-62
2022/08/02 11:58:34;;;;;;;;;1.00;1.00;;;;;;;;5072750;28;45988;-63
2022/08/02 12:01:00;;;;;;;;;3.75;3.00;;;;;;;;5072706;28;45386;-63
2022/08/02 12:03:25;;;;;;;;;1.00;1.00;;;;;;;;5072802;28;45385;-63
2022/08/02 12:05:50;;;;;;;;;1.50;1.50;;;;;;;;5072360;28;46147;-62
2022/08/02 12:08:17;;;;;;;;;2.00;1.50;;;;;;;;5072369;28;45349;-64
2022/08/02 12:10:48;;;;;;;;;2.50;1.75;;;;;;;;5072674;28;45343;-63
2022/08/02 12:13:13;;;;;;;;;2.50;2.50;;;;;;;;5072511;28;45270;-63
2022/08/02 12:15:40;;;;;;;;;2.00;2.00;;;;;;;;5053988;28;48676;-63
2022/08/02 12:21:20;;;;;;;;;1.25;0.50;;;;;;;;5072283;28;45366;-63
2022/08/02 12:23:46;;;;;;;;;1.00;1.00;;;;;;;;5072192;28;45352;-62
2022/08/02 12:26:11;;;;;;;;;1.00;1.00;;;;;;;;5071838;28;45568;-62
2022/08/02 12:28:37;;;;;;;;;0.00;0.00;;;;;;;;5072240;28;45426;-63
2022/08/02 12:31:03;;;;;;;;;2.00;1.00;;;;;;;;5053923;28;45312;-62
2022/08/02 12:33:43;;;;;;;;;2.00;1.00;;;;;;;;5053878;28;45468;-62
2022/08/02 12:36:18;;;;;;;;;1.50;1.50;;;;;;;;5074895;28;46773;-63
2022/08/02 12:38:53;;;;;;;;;1.00;1.00;;;;;;;;5075219;28;45293;-62
2022/08/02 12:41:18;;;;;;;;;0.75;0.75;;;;;;;;5075238;28;45309;-63
2022/08/02 12:43:44;;;;;;;;;1.75;1.75;;;;;;;;5075432;28;45313;-62
2022/08/02 12:46:16;;;;;;;;;1.00;1.00;;;;;;;;5075186;28;46285;-62
2022/08/02 12:48:41;;;;;;;;;1.00;1.00;;;;;;;;5075156;28;45387;-63
2022/08/02 12:51:25;;;;;;;;;1.25;1.25;;;;;;;;5057262;28;45329;-62
2022/08/02 12:53:51;;;;;;;;;1.00;1.00;;;;;;;;5075248;28;45178;-64
2022/08/02 12:56:31;;;;;;;;;0.75;0.75;;;;;;;;5074926;28;46644;-63
2022/08/02 12:58:57;;;;;;;;;1.00;1.00;;;;;;;;5074802;28;45329;-63
2022/08/02 13:01:24;;;;;;;;;1.00;1.00;;;;;;;;5075083;28;45237;-63
2022/08/02 13:03:49;;;;;;;;;1.00;1.00;;;;;;;;5075146;28;45450;-63
2022/08/02 13:06:15;;;;;;;;;1.25;1.25;;;;;;;;5056427;28;48473;-62
2022/08/02 13:08:40;;;;;;;;;1.00;1.00;;;;;;;;5074996;28;45231;-63
2022/08/02 13:11:06;;;;;;;;;1.00;1.00;;;;;;;;5075171;28;45274;-62
2022/08/02 13:13:31;;;;;;;;;1.00;1.00;;;;;;;;5074911;28;45390;-62
2022/08/02 13:15:56;;;;;;;;;2.00;2.00;;;;;;;;5075039;28;46624;-63
2022/08/02 13:18:21;;;;;;;;;2.00;2.00;;;;;;;;5056397;27;45299;-63
2022/08/02 13:20:47;;;;;;;;;2.00;2.00;;;;;;;;5074835;28;45161;-63
2022/08/02 13:23:12;;;;;;;;;1.00;1.00;;;;;;;;5075043;28;45848;-62
2022/08/02 13:25:37;;;;;;;;;1.75;1.00;;;;;;;;5074503;28;45593;-63
2022/08/02 13:28:02;;;;;;;;;1.25;1.25;;;;;;;;5056549;28;45309;-63
2022/08/02 13:30:28;;;;;;;;;0.25;0.25;;;;;;;;5056590;28;45336;-63
2022/08/02 13:32:53;;;;;;;;;0.50;0.50;;;;;;;;5056553;27;45189;-63
2022/08/02 13:35:18;;;;;;;;;1.50;1.50;;;;;;;;5056350;28;46468;-63
2022/08/02 13:37:44;;;;;;;;;1.50;1.25;;;;;;;;5056384;28;45322;-63
2022/08/02 13:40:09;;;;;;;;;1.50;1.50;;;;;;;;5074456;28;45375;-63
2022/08/02 13:42:34;;;;;;;;;2.00;1.00;;;;;;;;5074611;28;45332;-63
2022/08/02 13:45:00;;;;;;;;;1.00;1.00;;;;;;;;5074219;28;46491;-62
2022/08/02 13:47:25;;;;;;;;;1.00;1.00;;;;;;;;5074378;28;45354;-62
2022/08/02 13:49:50;;;;;;;;;2.00;2.00;;;;;;;;5074792;28;45272;-63
2022/08/02 13:52:16;;;;;;;;;1.00;1.00;;;;;;;;5074494;28;45496;-63
2022/08/02 13:54:41;;;;;;;;;0.25;0.25;;;;;;;;5074353;28;45881;-63
2022/08/02 13:57:06;;;;;;;;;1.00;1.00;;;;;;;;5074531;28;45500;-63
2022/08/02 13:59:31;;;;;;;;;1.50;1.50;;;;;;;;5074441;28;45307;-62
2022/08/02 14:01:57;;;;;;;;;1.00;1.00;;;;;;;;5074496;28;45336;-63
2022/08/02 14:04:23;;;;;;;;;1.75;1.75;;;;;;;;5074095;28;46017;-62
2022/08/02 14:06:48;;;;;;;;;1.25;1.25;;;;;;;;5074074;28;45560;-63
2022/08/02 14:09:13;;;;;;;;;1.00;1.00;;;;;;;;5074527;28;45462;-63
2022/08/02 14:11:38;;;;;;;;;0.25;0.25;;;;;;;;5074439;28;45350;-62
2022/08/02 14:14:03;;;;;;;;;0.75;0.75;;;;;;;;5074131;28;46461;-63
2022/08/02 14:16:29;;;;;;;;;1.00;1.00;;;;;;;;5074266;28;45380;-63
2022/08/02 14:18:54;;;;;;;;;1.00;1.00;;;;;;;;5074053;27;45378;-64
2022/08/02 14:21:19;;;;;;;;;1.75;1.00;;;;;;;;5056004;28;45575;-63
2022/08/02 14:23:44;;;;;;;;;0.25;0.25;;;;;;;;5056080;27;48591;-62
2022/08/02 14:26:10;;;;;;;;;2.00;1.00;;;;;;;;5073839;28;45329;-62
2022/08/02 14:28:35;;;;;;;;;1.00;1.00;;;;;;;;5074255;28;45429;-63
2022/08/02 14:31:01;;;;;;;;;1.50;1.25;;;;;;;;5073990;28;45409;-64
2022/08/02 14:33:26;;;;;;;;;1.00;1.00;;;;;;;;5073952;28;45690;-63
2022/08/02 14:35:52;;;;;;;;;0.00;0.00;;;;;;;;5073843;28;45391;-63
2022/08/02 14:38:18;;;;;;;;;1.50;1.50;;;;;;;;5073969;28;45375;-63
2022/08/02 14:40:43;;;;;;;;;1.00;1.00;;;;;;;;5073773;28;45497;-63
2022/08/02 14:43:09;;;;;;;;;2.00;2.00;;;;;;;;5073517;28;45763;-63
2022/08/02 14:45:35;;;;;;;;;0.75;0.75;;;;;;;;5073276;28;45357;-63
2022/08/02 14:48:00;;;;;;;;;2.75;2.00;;;;;;;;5055388;28;45453;-63
2022/08/02 14:50:25;;;;;;;;;0.50;0.50;;;;;;;;5073725;28;45417;-63